sensor_id;sensor_type;location;lat;lon;timestamp;pressure;altitude;pressure_sealevel;temperature;humidity
66627;BME280;53498;50.422;14.912;2023-05-23T15:27:54;98689.41;;;19.38;72.44
66627;BME280;53498;50.422;14.912;2023-05-23T15:30:21;98687.31;;;19.46;74.39
66627;BME280;53498;50.422;14.912;2023-05-23T15:32:47;98682.09;;;19.45;71.92
66627;BME280;53498;50.422;14.912;2023-05-23T15:35:13;98688.34;;;19.22;71.75
66627;BME280;53498;50.422;14.912;2023-05-23T15:37:40;98681.94;;;19.05;71.77
66627;BME280;53498;50.422;14.912;2023-05-23T15:40:06;98680.94;;;19.09;73.89
66627;BME280;53498;50.422;14.912;2023-05-23T15:42:31;98690.66;;;19.07;71.97
66627;BME280;53498;50.422;14.912;2023-05-23T15:44:57;98681.72;;;18.89;73.73
66627;BME280;53498;50.422;14.912;2023-05-23T15:47:23;98677.13;;;18.94;74.09
66627;BME280;53498;50.422;14.912;2023-05-23T15:49:49;98681.47;;;18.95;74.85
66627;BME280;53498;50.422;14.912;2023-05-23T15:52:14;98675.09;;;19.01;74.09
66627;BME280;53498;50.422;14.912;2023-05-23T15:54:40;98673.88;;;19.10;73.67
66627;BME280;53498;50.422;14.912;2023-05-23T15:57:06;98671.66;;;19.21;73.91
66627;BME280;53498;50.422;14.912;2023-05-23T15:59:31;98674.16;;;19.24;72.35
66627;BME280;53498;50.422;14.912;2023-05-23T16:01:57;98666.84;;;19.31;71.43
66627;BME280;53498;50.422;14.912;2023-05-23T16:04:23;98666.72;;;19.34;70.48
66627;BME280;53498;50.422;14.912;2023-05-23T16:06:49;98670.44;;;19.08;71.54
66627;BME280;53498;50.422;14.912;2023-05-23T16:09:15;98665.75;;;19.14;72.71
66627;BME280;53498;50.422;14.912;2023-05-23T16:11:41;98668.22;;;19.19;71.84
66627;BME280;53498;50.422;14.912;2023-05-23T16:14:07;98666.56;;;19.16;71.91
66627;BME280;53498;50.422;14.912;2023-05-23T16:16:33;98665.41;;;19.02;71.90
66627;BME280;53498;50.422;14.912;2023-05-23T16:18:59;98675.47;;;18.92;72.18
66627;BME280;53498;50.422;14.912;2023-05-23T16:21:28;98673.97;;;18.63;71.82
66627;BME280;53498;50.422;14.912;2023-05-23T16:23:54;98670.75;;;18.55;71.58
66627;BME280;53498;50.422;14.912;2023-05-23T16:26:20;98680.44;;;18.54;72.10
66627;BME280;53498;50.422;14.912;2023-05-23T16:28:46;98674.19;;;18.57;73.59
66627;BME280;53498;50.422;14.912;2023-05-23T16:31:15;98674.19;;;18.57;73.27
66627;BME280;53498;50.422;14.912;2023-05-23T16:33:42;98684.94;;;18.52;73.92
66627;BME280;53498;50.422;14.912;2023-05-23T16:36:08;98683.66;;;18.39;75.53
66627;BME280;53498;50.422;14.912;2023-05-23T16:38:34;98685.84;;;18.27;75.98
66627;BME280;53498;50.422;14.912;2023-05-23T16:41:00;98677.56;;;18.15;77.30
66627;BME280;53498;50.422;14.912;2023-05-23T16:43:26;98689.38;;;18.03;78.23
66627;BME280;53498;50.422;14.912;2023-05-23T16:45:51;98685.03;;;18.02;78.44
66627;BME280;53498;50.422;14.912;2023-05-23T16:48:18;98694.25;;;17.89;78.10
66627;BME280;53498;50.422;14.912;2023-05-23T16:50:44;98691.09;;;17.79;78.50
66627;BME280;53498;50.422;14.912;2023-05-23T16:53:10;98693.06;;;17.72;77.92
66627;BME280;53498;50.422;14.912;2023-05-23T16:55:36;98697.38;;;17.48;78.96
66627;BME280;53498;50.422;14.912;2023-05-23T16:58:02;98703.84;;;17.40;80.14
66627;BME280;53498;50.422;14.912;2023-05-23T17:00:28;98705.00;;;17.31;80.53
66627;BME280;53498;50.422;14.912;2023-05-23T17:02:54;98702.16;;;17.10;80.81
66627;BME280;53498;50.422;14.912;2023-05-23T17:05:20;98698.63;;;17.11;81.58
66627;BME280;53498;50.422;14.912;2023-05-23T17:07:46;98703.44;;;16.99;82.69
66627;BME280;53498;50.422;14.912;2023-05-23T17:10:12;98709.53;;;16.99;82.61
66627;BME280;53498;50.422;14.912;2023-05-23T17:12:38;98709.44;;;17.02;83.12
66627;BME280;53498;50.422;14.912;2023-05-23T17:15:03;98712.38;;;16.92;83.34
66627;BME280;53498;50.422;14.912;2023-05-23T17:17:31;98713.47;;;16.86;83.13
66627;BME280;53498;50.422;14.912;2023-05-23T17:19:57;98714.41;;;16.83;83.69
66627;BME280;53498;50.422;14.912;2023-05-23T17:22:23;98729.34;;;16.81;83.14
66627;BME280;53498;50.422;14.912;2023-05-23T17:24:49;98725.16;;;16.74;83.52
66627;BME280;53498;50.422;14.912;2023-05-23T17:27:15;98721.66;;;16.75;84.47
66627;BME280;53498;50.422;14.912;2023-05-23T17:29:40;98721.03;;;16.65;84.71
66627;BME280;53498;50.422;14.912;2023-05-23T17:32:07;98732.69;;;16.57;85.58
66627;BME280;53498;50.422;14.912;2023-05-23T17:34:33;98732.75;;;16.54;85.67
66627;BME280;53498;50.422;14.912;2023-05-23T17:36:59;98739.13;;;16.45;86.43
66627;BME280;53498;50.422;14.912;2023-05-23T17:39:25;98748.78;;;16.45;86.82
66627;BME280;53498;50.422;14.912;2023-05-23T17:41:51;98752.31;;;16.43;88.57
66627;BME280;53498;50.422;14.912;2023-05-23T17:44:16;98750.66;;;16.41;88.74
66627;BME280;53498;50.422;14.912;2023-05-23T17:46:43;98740.97;;;16.43;88.51
66627;BME280;53498;50.422;14.912;2023-05-23T17:49:08;98757.94;;;16.31;89.30
66627;BME280;53498;50.422;14.912;2023-05-23T17:51:34;98764.78;;;16.35;90.28
66627;BME280;53498;50.422;14.912;2023-05-23T17:54:00;98763.78;;;16.41;89.42
66627;BME280;53498;50.422;14.912;2023-05-23T17:56:29;98774.34;;;16.39;88.57
66627;BME280;53498;50.422;14.912;2023-05-23T17:58:55;98771.81;;;16.35;88.58
66627;BME280;53498;50.422;14.912;2023-05-23T18:01:22;98776.13;;;16.37;87.91
66627;BME280;53498;50.422;14.912;2023-05-23T18:03:48;98782.28;;;16.36;87.78
66627;BME280;53498;50.422;14.912;2023-05-23T18:06:14;98780.47;;;16.38;88.59
66627;BME280;53498;50.422;14.912;2023-05-23T18:08:40;98781.38;;;16.37;87.41
66627;BME280;53498;50.422;14.912;2023-05-23T18:11:06;98789.41;;;16.31;86.95
66627;BME280;53498;50.422;14.912;2023-05-23T18:13:32;98780.72;;;16.29;86.70
66627;BME280;53498;50.422;14.912;2023-05-23T18:15:58;98796.63;;;16.23;87.06
66627;BME280;53498;50.422;14.912;2023-05-23T18:18:23;98793.06;;;16.26;87.71
66627;BME280;53498;50.422;14.912;2023-05-23T18:20:57;98800.25;;;16.19;87.22
66627;BME280;53498;50.422;14.912;2023-05-23T18:23:24;98803.94;;;16.12;87.79
66627;BME280;53498;50.422;14.912;2023-05-23T18:25:50;98808.38;;;16.10;87.76
66627;BME280;53498;50.422;14.912;2023-05-23T18:28:16;98811.94;;;16.07;88.12
66627;BME280;53498;50.422;14.912;2023-05-23T18:30:42;98822.44;;;16.07;88.04
66627;BME280;53498;50.422;14.912;2023-05-23T18:33:08;98824.19;;;16.07;88.10
66627;BME280;53498;50.422;14.912;2023-05-23T18:35:34;98826.97;;;16.01;87.86
66627;BME280;53498;50.422;14.912;2023-05-23T18:37:59;98830.66;;;15.93;88.92
66627;BME280;53498;50.422;14.912;2023-05-23T18:40:26;98846.47;;;15.90;89.92
66627;BME280;53498;50.422;14.912;2023-05-23T18:42:52;98846.56;;;15.87;89.15
66627;BME280;53498;50.422;14.912;2023-05-23T18:45:18;98849.25;;;15.84;89.05
66627;BME280;53498;50.422;14.912;2023-05-23T18:47:44;98860.97;;;15.71;89.10
66627;BME280;53498;50.422;14.912;2023-05-23T18:50:11;98857.09;;;15.47;89.90
66627;BME280;53498;50.422;14.912;2023-05-23T18:52:37;98872.69;;;15.55;90.10
66627;BME280;53498;50.422;14.912;2023-05-23T18:55:03;98866.75;;;15.46;89.80
66627;BME280;53498;50.422;14.912;2023-05-23T18:57:30;98877.09;;;15.53;90.86
66627;BME280;53498;50.422;14.912;2023-05-23T18:59:59;98878.91;;;15.49;91.18
66627;BME280;53498;50.422;14.912;2023-05-23T19:02:25;98877.19;;;15.48;90.65
66627;BME280;53498;50.422;14.912;2023-05-23T19:04:51;98885.16;;;15.43;90.18
66627;BME280;53498;50.422;14.912;2023-05-23T19:07:17;98881.81;;;15.37;90.10
66627;BME280;53498;50.422;14.912;2023-05-23T19:09:43;98892.94;;;15.46;90.73
66627;BME280;53498;50.422;14.912;2023-05-23T19:12:08;98893.28;;;15.31;90.36
66627;BME280;53498;50.422;14.912;2023-05-23T19:14:34;98903.97;;;15.22;90.75
66627;BME280;53498;50.422;14.912;2023-05-23T19:17:00;98903.91;;;15.25;91.22
66627;BME280;53498;50.422;14.912;2023-05-23T19:19:33;98909.28;;;15.19;91.47
66627;BME280;53498;50.422;14.912;2023-05-23T19:21:59;98917.13;;;15.19;91.81
66627;BME280;53498;50.422;14.912;2023-05-23T19:24:26;98909.22;;;15.22;92.80
66627;BME280;53498;50.422;14.912;2023-05-23T19:26:52;98921.50;;;15.20;91.78
66627;BME280;53498;50.422;14.912;2023-05-23T19:29:18;98915.56;;;15.10;92.40
66627;BME280;53498;50.422;14.912;2023-05-23T19:31:44;98916.69;;;14.98;92.46
66627;BME280;53498;50.422;14.912;2023-05-23T19:34:11;98928.13;;;14.94;92.69
66627;BME280;53498;50.422;14.912;2023-05-23T19:36:37;98925.63;;;14.88;92.91
66627;BME280;53498;50.422;14.912;2023-05-23T19:39:03;98935.34;;;14.83;93.47
66627;BME280;53498;50.422;14.912;2023-05-23T19:41:29;98933.63;;;14.80;93.22
66627;BME280;53498;50.422;14.912;2023-05-23T19:43:58;98935.47;;;14.77;93.89
66627;BME280;53498;50.422;14.912;2023-05-23T19:46:25;98939.91;;;14.72;94.31
66627;BME280;53498;50.422;14.912;2023-05-23T19:48:51;98945.34;;;14.61;94.73
66627;BME280;53498;50.422;14.912;2023-05-23T19:51:16;98948.66;;;14.71;94.68
66627;BME280;53498;50.422;14.912;2023-05-23T19:53:42;98953.16;;;14.63;94.03
66627;BME280;53498;50.422;14.912;2023-05-23T19:56:08;98949.78;;;14.57;94.32
66627;BME280;53498;50.422;14.912;2023-05-23T19:58:34;98954.97;;;14.59;93.97
66627;BME280;53498;50.422;14.912;2023-05-23T20:01:00;98950.63;;;14.58;94.33
66627;BME280;53498;50.422;14.912;2023-05-23T20:03:27;98964.66;;;14.55;94.12
66627;BME280;53498;50.422;14.912;2023-05-23T20:05:53;98963.56;;;14.66;94.05
66627;BME280;53498;50.422;14.912;2023-05-23T20:08:27;98964.88;;;14.40;94.55
66627;BME280;53498;50.422;14.912;2023-05-23T20:10:52;98967.59;;;14.35;94.42
66627;BME280;53498;50.422;14.912;2023-05-23T20:13:20;98971.13;;;14.31;95.06
66627;BME280;53498;50.422;14.912;2023-05-23T20:15:46;98970.31;;;14.29;95.61
66627;BME280;53498;50.422;14.912;2023-05-23T20:18:20;98973.06;;;14.20;95.05
66627;BME280;53498;50.422;14.912;2023-05-23T20:20:46;98980.06;;;14.20;95.15
66627;BME280;53498;50.422;14.912;2023-05-23T20:23:12;98978.50;;;14.08;95.14
66627;BME280;53498;50.422;14.912;2023-05-23T20:25:38;98998.66;;;14.01;94.32
66627;BME280;53498;50.422;14.912;2023-05-23T20:28:04;98990.72;;;14.06;94.65
66627;BME280;53498;50.422;14.912;2023-05-23T20:30:30;98984.75;;;13.96;94.41
66627;BME280;53498;50.422;14.912;2023-05-23T20:32:56;98987.38;;;13.96;94.46
66627;BME280;53498;50.422;14.912;2023-05-23T20:35:22;98995.22;;;13.96;94.04
66627;BME280;53498;50.422;14.912;2023-05-23T20:37:48;98993.56;;;13.92;94.07
66627;BME280;53498;50.422;14.912;2023-05-23T20:40:20;99000.53;;;13.92;94.38
66627;BME280;53498;50.422;14.912;2023-05-23T20:42:47;98997.06;;;13.88;94.68
66627;BME280;53498;50.422;14.912;2023-05-23T20:45:13;99005.81;;;13.87;94.85
66627;BME280;53498;50.422;14.912;2023-05-23T20:47:40;99003.28;;;13.82;94.24
66627;BME280;53498;50.422;14.912;2023-05-23T20:50:10;99004.19;;;13.78;93.91
66627;BME280;53498;50.422;14.912;2023-05-23T20:52:37;99008.81;;;13.61;93.41
66627;BME280;53498;50.422;14.912;2023-05-23T20:55:08;99010.44;;;13.68;93.29
66627;BME280;53498;50.422;14.912;2023-05-23T20:57:34;99007.22;;;13.49;92.93
66627;BME280;53498;50.422;14.912;2023-05-23T21:00:02;99013.47;;;13.36;94.03
66627;BME280;53498;50.422;14.912;2023-05-23T21:02:32;99008.34;;;13.27;95.10
66627;BME280;53498;50.422;14.912;2023-05-23T21:04:57;99021.41;;;13.22;95.52
66627;BME280;53498;50.422;14.912;2023-05-23T21:07:23;99007.50;;;13.22;95.96
66627;BME280;53498;50.422;14.912;2023-05-23T21:09:48;99011.91;;;13.18;96.21
66627;BME280;53498;50.422;14.912;2023-05-23T21:12:14;99008.44;;;13.17;96.13
66627;BME280;53498;50.422;14.912;2023-05-23T21:14:40;99020.66;;;13.12;96.23
66627;BME280;53498;50.422;14.912;2023-05-23T21:17:05;99017.22;;;13.10;96.61
66627;BME280;53498;50.422;14.912;2023-05-23T21:19:31;99015.38;;;13.18;95.77
66627;BME280;53498;50.422;14.912;2023-05-23T21:21:56;99025.88;;;13.12;95.77
66627;BME280;53498;50.422;14.912;2023-05-23T21:24:22;99019.81;;;13.12;95.76
66627;BME280;53498;50.422;14.912;2023-05-23T21:26:50;99023.22;;;13.18;95.40
66627;BME280;53498;50.422;14.912;2023-05-23T21:29:16;99022.31;;;13.23;95.07
66627;BME280;53498;50.422;14.912;2023-05-23T21:31:42;99024.97;;;13.19;95.45
66627;BME280;53498;50.422;14.912;2023-05-23T21:34:08;99025.84;;;13.15;95.38
66627;BME280;53498;50.422;14.912;2023-05-23T21:36:33;99013.75;;;13.08;95.84
66627;BME280;53498;50.422;14.912;2023-05-23T21:38:59;99012.00;;;13.10;96.39
66627;BME280;53498;50.422;14.912;2023-05-23T21:41:26;99019.91;;;13.03;95.43
66627;BME280;53498;50.422;14.912;2023-05-23T21:43:51;99023.38;;;13.03;96.29
66627;BME280;53498;50.422;14.912;2023-05-23T21:46:18;99020.81;;;12.97;96.03
66627;BME280;53498;50.422;14.912;2023-05-23T21:48:43;99025.19;;;12.96;96.24
66627;BME280;53498;50.422;14.912;2023-05-23T21:51:09;99037.44;;;12.91;96.04
66627;BME280;53498;50.422;14.912;2023-05-23T21:53:36;99034.88;;;12.87;96.10
66627;BME280;53498;50.422;14.912;2023-05-23T21:56:02;99026.09;;;12.92;96.35
66627;BME280;53498;50.422;14.912;2023-05-23T21:58:28;99027.84;;;12.90;96.39
66627;BME280;53498;50.422;14.912;2023-05-23T22:00:53;99034.78;;;12.98;96.29
66627;BME280;53498;50.422;14.912;2023-05-23T22:03:19;99040.88;;;12.93;96.01
66627;BME280;53498;50.422;14.912;2023-05-23T22:05:45;99047.22;;;12.69;96.40
66627;BME280;53498;50.422;14.912;2023-05-23T22:08:10;99042.78;;;12.78;96.75
66627;BME280;53498;50.422;14.912;2023-05-23T22:10:36;99035.81;;;12.78;97.70
66627;BME280;53498;50.422;14.912;2023-05-23T22:13:04;99040.19;;;12.74;96.38
66627;BME280;53498;50.422;14.912;2023-05-23T22:15:30;99046.25;;;12.78;96.87
66627;BME280;53498;50.422;14.912;2023-05-23T22:17:57;99047.19;;;12.72;96.43
66627;BME280;53498;50.422;14.912;2023-05-23T22:20:23;99041.94;;;12.74;96.80
66627;BME280;53498;50.422;14.912;2023-05-23T22:22:49;99048.13;;;12.64;96.48
66627;BME280;53498;50.422;14.912;2023-05-23T22:25:15;99040.31;;;12.62;96.98
66627;BME280;53498;50.422;14.912;2023-05-23T22:27:41;99036.75;;;12.71;96.81
66627;BME280;53498;50.422;14.912;2023-05-23T22:30:07;99029.91;;;12.56;97.21
66627;BME280;53498;50.422;14.912;2023-05-23T22:32:32;99042.91;;;12.64;97.46
66627;BME280;53498;50.422;14.912;2023-05-23T22:34:58;99042.09;;;12.60;97.80
66627;BME280;53498;50.422;14.912;2023-05-23T22:37:24;99031.72;;;12.51;98.54
66627;BME280;53498;50.422;14.912;2023-05-23T22:39:49;99040.44;;;12.47;98.89
66627;BME280;53498;50.422;14.912;2023-05-23T22:42:15;99040.44;;;12.47;99.30
66627;BME280;53498;50.422;14.912;2023-05-23T22:44:41;99038.81;;;12.31;100.00
66627;BME280;53498;50.422;14.912;2023-05-23T22:47:06;99044.03;;;12.31;100.00
66627;BME280;53498;50.422;14.912;2023-05-23T22:49:34;99041.41;;;12.35;100.00
66627;BME280;53498;50.422;14.912;2023-05-23T22:52:00;99048.41;;;12.27;100.00
66627;BME280;53498;50.422;14.912;2023-05-23T22:54:26;99045.78;;;12.33;100.00
66627;BME280;53498;50.422;14.912;2023-05-23T22:56:51;99048.41;;;12.30;100.00
66627;BME280;53498;50.422;14.912;2023-05-23T22:59:17;99049.38;;;12.17;100.00
66627;BME280;53498;50.422;14.912;2023-05-23T23:01:43;99059.78;;;12.20;100.00
66627;BME280;53498;50.422;14.912;2023-05-23T23:04:08;99054.59;;;12.14;100.00
66627;BME280;53498;50.422;14.912;2023-05-23T23:06:34;99060.66;;;12.17;100.00
66627;BME280;53498;50.422;14.912;2023-05-23T23:09:00;99060.72;;;12.13;100.00
66627;BME280;53498;50.422;14.912;2023-05-23T23:11:25;99065.00;;;12.20;100.00
66627;BME280;53498;50.422;14.912;2023-05-23T23:13:51;99070.97;;;12.34;100.00
66627;BME280;53498;50.422;14.912;2023-05-23T23:16:16;99077.09;;;12.32;100.00
66627;BME280;53498;50.422;14.912;2023-05-23T23:18:51;99082.25;;;12.38;100.00
66627;BME280;53498;50.422;14.912;2023-05-23T23:21:17;99083.28;;;12.17;100.00
66627;BME280;53498;50.422;14.912;2023-05-23T23:23:43;99085.00;;;12.18;100.00
66627;BME280;53498;50.422;14.912;2023-05-23T23:26:08;99078.91;;;12.20;100.00
66627;BME280;53498;50.422;14.912;2023-05-23T23:28:34;99082.38;;;12.19;100.00
66627;BME280;53498;50.422;14.912;2023-05-23T23:31:02;99087.66;;;12.10;100.00
66627;BME280;53498;50.422;14.912;2023-05-23T23:33:28;99085.03;;;12.12;100.00
66627;BME280;53498;50.422;14.912;2023-05-23T23:35:53;99086.75;;;12.17;100.00
66627;BME280;53498;50.422;14.912;2023-05-23T23:38:19;99085.94;;;12.08;100.00
66627;BME280;53498;50.422;14.912;2023-05-23T23:40:45;99084.19;;;12.08;100.00
66627;BME280;53498;50.422;14.912;2023-05-23T23:43:11;99089.34;;;12.17;100.00
66627;BME280;53498;50.422;14.912;2023-05-23T23:45:37;99086.78;;;12.08;100.00
66627;BME280;53498;50.422;14.912;2023-05-23T23:48:03;99088.53;;;12.06;100.00
66627;BME280;53498;50.422;14.912;2023-05-23T23:50:28;99091.19;;;11.94;100.00
66627;BME280;53498;50.422;14.912;2023-05-23T23:52:56;99089.47;;;11.97;100.00
66627;BME280;53498;50.422;14.912;2023-05-23T23:55:22;99099.91;;;11.93;100.00
66627;BME280;53498;50.422;14.912;2023-05-23T23:57:48;99093.00;;;11.76;100.00
